Time;durP1;ratioP1;P1;durP2;ratioP2;P2;SDS_P1;SDS_P2;PMS_P1;PMS_P2;Temp;Humidity;BMP_temperature;BMP_pressure;BME280_temperature;BME280_humidity;BME280_pressure;Samples;Min_cycle;Max_cycle;Signal;HPM_P1;HPM_P2
2023/01/30 00:01:17;;;;;;;5.82;3.85;;;3.20;99.90;;;;;;5006115;28;20204;-73
2023/01/30 00:03:47;;;;;;;8.13;4.78;;;3.20;99.90;;;;;;4999368;28;20219;-75
2023/01/30 00:06:16;;;;;;;5.05;3.63;;;3.20;99.90;;;;;;4992486;28;20252;-74
2023/01/30 00:08:44;;;;;;;6.57;4.07;;;3.20;99.90;;;;;;4992692;28;20586;-74
2023/01/30 00:11:15;;;;;;;5.57;4.07;;;3.20;99.90;;;;;;4995329;28;20197;-75
2023/01/30 00:13:43;;;;;;;5.70;4.00;;;3.20;99.90;;;;;;4987415;28;20210;-74
2023/01/30 00:16:12;;;;;;;7.65;5.05;;;3.20;99.90;;;;;;4995713;28;20202;-73
2023/01/30 00:18:42;;;;;;;8.60;4.95;;;3.20;99.90;;;;;;4998203;28;20706;-74
2023/01/30 00:21:13;;;;;;;7.22;4.90;;;3.20;99.90;;;;;;5001913;28;20209;-73
2023/01/30 00:23:43;;;;;;;6.60;3.97;;;3.20;99.90;;;;;;5002036;28;20262;-74
2023/01/30 00:26:12;;;;;;;5.63;3.97;;;3.20;99.90;;;;;;4999885;28;20193;-72
2023/01/30 00:28:41;;;;;;;6.32;4.47;;;3.20;99.90;;;;;;4991007;28;20283;-76
2023/01/30 00:31:09;;;;;;;6.25;4.55;;;3.20;99.90;;;;;;4998999;28;20220;-74
2023/01/30 00:33:38;;;;;;;7.63;5.30;;;3.20;99.90;;;;;;4997759;28;20311;-74
2023/01/30 00:36:07;;;;;;;7.30;4.93;;;3.20;99.90;;;;;;4999368;28;20234;-73
2023/01/30 00:38:39;;;;;;;6.78;5.22;;;3.20;99.90;;;;;;4971155;28;20221;-75
2023/01/30 00:41:09;;;;;;;6.95;3.97;;;3.20;99.90;;;;;;4995073;28;20237;-74
2023/01/30 00:49:14;;;;;;;6.28;4.05;;;3.20;99.90;;;;;;5014264;28;20741;-74
2023/01/30 00:51:42;;;;;;;7.30;4.63;;;3.20;99.90;;;;;;4991861;28;20201;-76
2023/01/30 00:54:12;;;;;;;6.65;4.50;;;3.20;99.90;;;;;;4997001;28;20256;-74
2023/01/30 00:56:40;;;;;;;5.95;4.00;;;3.20;99.90;;;;;;4998516;28;20229;-75
2023/01/30 00:59:09;;;;;;;6.95;4.60;;;3.20;99.90;;;;;;5002111;28;20201;-74
2023/01/30 01:01:38;;;;;;;6.55;4.55;;;3.20;99.90;;;;;;5019973;28;20608;-76
2023/01/30 01:04:07;;;;;;;7.20;4.63;;;3.20;99.90;;;;;;5010725;28;20222;-78
2023/01/30 01:06:36;;;;;;;10.68;5.03;;;3.20;99.90;;;;;;5000327;28;20203;-74
2023/01/30 01:09:05;;;;;;;6.03;4.10;;;3.20;99.90;;;;;;4995705;28;20214;-74
2023/01/30 01:11:35;;;;;;;4.38;3.40;;;3.20;99.90;;;;;;4996902;28;20205;-75
2023/01/30 01:14:06;;;;;;;9.38;4.47;;;3.20;99.90;;;;;;4997878;28;20238;-74
2023/01/30 01:16:35;;;;;;;6.25;4.72;;;3.20;99.90;;;;;;4993496;28;20197;-73
2023/01/30 01:19:04;;;;;;;6.13;4.55;;;3.20;99.90;;;;;;5014642;28;20719;-75
2023/01/30 01:21:33;;;;;;;5.85;3.95;;;3.20;99.90;;;;;;4995501;28;20671;-73
2023/01/30 01:24:01;;;;;;;7.10;4.55;;;3.20;99.90;;;;;;4992568;28;20218;-73
2023/01/30 01:26:29;;;;;;;8.48;5.22;;;3.20;99.90;;;;;;5006204;28;20205;-73
2023/01/30 01:28:59;;;;;;;6.55;4.40;;;3.20;99.90;;;;;;4992600;28;20205;-74
2023/01/30 01:31:28;;;;;;;7.60;5.00;;;3.20;99.90;;;;;;4994723;28;20232;-74
2023/01/30 01:33:56;;;;;;;6.72;4.28;;;3.20;99.90;;;;;;4991680;28;20309;-75
2023/01/30 01:36:26;;;;;;;6.80;4.90;;;3.20;99.90;;;;;;5002182;28;20191;-75
2023/01/30 01:39:16;;;;;;;7.47;4.57;;;3.20;99.90;;;;;;4997392;28;20206;-72
2023/01/30 01:41:43;;;;;;;6.63;4.68;;;3.20;99.90;;;;;;4999101;28;20272;-74
2023/01/30 01:44:15;;;;;;;7.90;5.55;;;3.20;99.90;;;;;;5001518;28;20609;-75
2023/01/30 01:46:48;;;;;;;6.63;4.38;;;3.20;99.90;;;;;;4999956;28;20193;-75
2023/01/30 01:49:20;;;;;;;8.50;5.03;;;3.20;99.90;;;;;;5015284;28;20497;-74
2023/01/30 01:51:57;;;;;;;7.43;5.05;;;3.20;99.90;;;;;;4999177;28;20207;-74
2023/01/30 01:54:32;;;;;;;5.75;4.15;;;3.20;99.90;;;;;;4993662;28;20225;-74
2023/01/30 01:57:03;;;;;;;7.93;5.05;;;3.30;99.90;;;;;;4999166;28;20222;-73
2023/01/30 01:59:38;;;;;;;7.22;4.35;;;3.20;99.90;;;;;;4999486;28;20684;-74
2023/01/30 02:02:10;;;;;;;6.53;4.30;;;3.30;99.90;;;;;;4996784;28;20189;-73
2023/01/30 02:07:33;;;;;;;5.72;4.50;;;3.30;99.90;;;;;;5000071;28;20383;-68
2023/01/30 02:10:03;;;;;;;6.30;4.72;;;3.20;99.90;;;;;;5022179;28;20260;-68
2023/01/30 02:12:32;;;;;;;6.10;4.55;;;3.30;99.90;;;;;;4990433;28;20201;-67
2023/01/30 02:15:04;;;;;;;8.23;5.35;;;3.30;99.90;;;;;;5016877;28;20714;-66
2023/01/30 02:17:32;;;;;;;6.65;5.05;;;3.20;99.90;;;;;;4995352;28;20199;-70
2023/01/30 02:20:11;;;;;;;8.40;5.88;;;3.20;99.90;;;;;;4998946;28;20238;-67
2023/01/30 02:22:58;;;;;;;6.20;4.28;;;3.20;99.90;;;;;;5015200;28;20189;-68
2023/01/30 02:25:59;;;;;;;7.50;5.00;;;3.20;99.90;;;;;;4996198;28;20240;-68
2023/01/30 02:28:45;;;;;;;6.68;4.68;;;3.30;99.90;;;;;;4994135;28;20198;-68
2023/01/30 02:31:35;;;;;;;8.77;5.13;;;3.20;99.90;;;;;;5008902;28;20217;-68
2023/01/30 02:34:17;;;;;;;7.53;4.70;;;3.20;99.90;;;;;;5001885;28;20213;-75
2023/01/30 02:36:54;;;;;;;6.38;4.40;;;3.30;99.90;;;;;;5018222;28;20221;-74
2023/01/30 02:39:32;;;;;;;7.25;4.50;;;3.20;99.90;;;;;;4995350;28;20434;-75
2023/01/30 02:42:11;;;;;;;6.78;4.95;;;3.20;99.90;;;;;;4987398;28;20198;-73
2023/01/30 02:44:50;;;;;;;8.60;5.45;;;3.30;99.90;;;;;;4999255;28;20305;-75
2023/01/30 02:47:25;;;;;;;9.55;5.15;;;3.30;99.90;;;;;;5009230;28;20193;-74
2023/01/30 02:50:00;;;;;;;6.85;4.97;;;3.30;99.90;;;;;;4992522;28;20244;-74
2023/01/30 02:52:30;;;;;;;7.72;5.22;;;3.30;99.90;;;;;;5024647;28;20197;-73
2023/01/30 02:54:58;;;;;;;6.85;4.45;;;3.30;99.90;;;;;;4991281;28;20220;-74
2023/01/30 02:57:27;;;;;;;8.70;5.13;;;3.30;99.90;;;;;;5013612;28;20228;-75
2023/01/30 03:00:04;;;;;;;6.95;5.13;;;3.30;99.90;;;;;;5003039;28;20821;-74
2023/01/30 03:03:05;;;;;;;7.72;4.97;;;3.30;99.90;;;;;;5003129;28;20648;-74
2023/01/30 03:05:57;;;;;;;7.43;4.88;;;3.30;99.90;;;;;;5009239;28;20233;-75
2023/01/30 03:08:32;;;;;;;8.18;5.10;;;3.30;99.90;;;;;;5003234;28;20203;-74
2023/01/30 03:11:05;;;;;;;5.70;4.45;;;3.30;99.90;;;;;;5009478;28;20228;-74
2023/01/30 03:13:44;;;;;;;9.23;6.07;;;3.30;99.90;;;;;;5002066;28;20815;-75
2023/01/30 03:16:17;;;;;;;9.70;6.70;;;3.30;99.90;;;;;;4999477;28;20228;-74
2023/01/30 03:18:48;;;;;;;5.85;4.43;;;3.30;99.90;;;;;;4998269;28;21067;-76
2023/01/30 03:21:17;;;;;;;7.43;5.15;;;3.30;99.90;;;;;;4991583;28;20290;-74
2023/01/30 03:23:46;;;;;;;7.90;5.05;;;3.30;99.90;;;;;;5023196;28;20697;-75
2023/01/30 03:26:19;;;;;;;9.07;5.53;;;3.30;99.90;;;;;;5005892;28;20197;-74
2023/01/30 03:28:50;;;;;;;7.38;5.20;;;3.30;99.90;;;;;;4998040;28;20194;-75
2023/01/30 03:31:20;;;;;;;8.73;5.45;;;3.30;99.90;;;;;;5007523;28;20247;-73
2023/01/30 03:33:50;;;;;;;7.03;5.20;;;3.30;99.90;;;;;;5000672;28;20267;-73
2023/01/30 03:36:18;;;;;;;6.80;4.45;;;3.30;99.90;;;;;;5001753;28;20195;-73
2023/01/30 03:38:47;;;;;;;8.10;4.70;;;3.30;99.90;;;;;;5025197;28;20223;-74
2023/01/30 03:41:16;;;;;;;9.55;5.57;;;3.30;99.90;;;;;;5016020;28;20202;-75
2023/01/30 03:43:44;;;;;;;7.60;6.28;;;3.30;99.90;;;;;;5019491;28;20214;-74
2023/01/30 03:46:15;;;;;;;6.40;5.00;;;3.30;99.90;;;;;;5006333;28;20236;-74
2023/01/30 03:48:44;;;;;;;7.10;4.97;;;3.30;99.90;;;;;;5005598;28;20193;-73
2023/01/30 03:51:15;;;;;;;6.68;3.90;;;3.30;99.90;;;;;;5006917;28;20582;-73
2023/01/30 03:53:43;;;;;;;7.65;4.55;;;3.30;99.90;;;;;;4999991;28;20220;-74
2023/01/30 03:56:12;;;;;;;5.93;4.32;;;3.30;99.90;;;;;;4996202;28;20229;-73
2023/01/30 03:58:41;;;;;;;6.57;5.00;;;3.30;99.90;;;;;;5006718;28;20289;-75
2023/01/30 04:01:24;;;;;;;5.68;4.25;;;3.30;99.90;;;;;;5008023;28;20682;-74
2023/01/30 04:03:52;;;;;;;6.70;4.38;;;3.30;99.90;;;;;;4998995;28;20218;-74
2023/01/30 04:06:22;;;;;;;6.30;4.80;;;3.30;99.90;;;;;;4998727;28;20200;-73
2023/01/30 04:08:52;;;;;;;6.60;4.50;;;3.30;99.90;;;;;;4998919;28;20243;-74
2023/01/30 04:11:35;;;;;;;6.47;5.07;;;3.30;99.90;;;;;;5002743;28;21535;-75
2023/01/30 04:14:03;;;;;;;5.13;4.25;;;3.30;99.90;;;;;;4991438;28;20240;-76
2023/01/30 04:16:37;;;;;;;6.13;4.13;;;3.30;99.90;;;;;;5006184;28;20197;-72
2023/01/30 04:19:24;;;;;;;7.05;4.93;;;3.30;99.90;;;;;;5020956;28;20224;-75
2023/01/30 04:21:53;;;;;;;5.53;4.05;;;3.30;99.90;;;;;;4991887;28;20224;-74
2023/01/30 04:24:22;;;;;;;6.03;3.80;;;3.30;99.90;;;;;;5003982;28;20226;-75
2023/01/30 04:26:50;;;;;;;8.80;4.22;;;3.30;99.90;;;;;;4999202;28;20266;-74
2023/01/30 04:29:19;;;;;;;6.10;4.38;;;3.30;99.90;;;;;;4999407;28;20618;-73
2023/01/30 04:31:50;;;;;;;6.85;4.50;;;3.30;99.90;;;;;;4996028;28;20259;-75
2023/01/30 04:34:22;;;;;;;7.10;4.25;;;3.30;99.90;;;;;;4997874;28;20941;-73
2023/01/30 04:36:50;;;;;;;6.45;4.40;;;3.30;99.90;;;;;;5001254;28;20190;-74
2023/01/30 04:39:20;;;;;;;6.68;4.40;;;3.30;99.90;;;;;;4996608;28;20222;-73
2023/01/30 04:41:49;;;;;;;6.47;4.43;;;3.30;99.90;;;;;;5006371;28;20282;-74
2023/01/30 04:44:17;;;;;;;6.05;4.30;;;3.30;99.90;;;;;;4995754;28;20221;-75
2023/01/30 04:46:56;;;;;;;7.25;4.80;;;3.30;99.90;;;;;;5012245;28;20209;-74
2023/01/30 04:49:25;;;;;;;6.22;4.05;;;3.30;99.90;;;;;;5013800;28;20256;-74
2023/01/30 04:51:54;;;;;;;6.97;4.75;;;3.30;99.90;;;;;;4997787;28;20207;-72
2023/01/30 04:54:24;;;;;;;11.70;5.03;;;3.30;99.90;;;;;;5001793;28;20227;-74
2023/01/30 04:56:52;;;;;;;8.10;4.85;;;3.30;99.90;;;;;;4997576;28;20229;-73
2023/01/30 04:59:20;;;;;;;9.18;4.90;;;3.30;99.90;;;;;;4993969;28;20210;-75
2023/01/30 05:01:51;;;;;;;6.50;4.55;;;3.30;99.90;;;;;;4998737;28;20751;-74
2023/01/30 05:04:20;;;;;;;5.97;3.63;;;3.30;99.90;;;;;;4993777;28;20284;-74
2023/01/30 05:06:49;;;;;;;6.70;4.57;;;3.40;99.90;;;;;;5012477;28;20594;-72
2023/01/30 05:09:17;;;;;;;5.90;4.50;;;3.30;99.90;;;;;;5005406;28;20585;-74
2023/01/30 05:11:47;;;;;;;6.50;4.70;;;3.30;99.90;;;;;;4997523;28;20209;-73
2023/01/30 05:14:18;;;;;;;6.57;4.85;;;3.30;99.90;;;;;;5018737;28;20252;-75
2023/01/30 05:16:46;;;;;;;5.88;4.30;;;3.30;99.90;;;;;;5013645;28;20205;-74
2023/01/30 05:19:15;;;;;;;7.68;5.07;;;3.30;99.90;;;;;;5010235;28;20221;-74
2023/01/30 05:21:43;;;;;;;6.97;4.25;;;3.30;99.90;;;;;;5006315;28;20276;-74
2023/01/30 05:24:11;;;;;;;6.95;4.50;;;3.40;99.90;;;;;;5006506;28;20217;-73
2023/01/30 05:26:40;;;;;;;5.15;4.18;;;3.30;99.90;;;;;;5004205;28;20296;-75
2023/01/30 05:29:11;;;;;;;6.05;4.03;;;3.40;99.90;;;;;;4999114;28;20251;-73
2023/01/30 05:31:39;;;;;;;7.28;4.00;;;3.30;99.90;;;;;;5003323;28;20226;-74
2023/01/30 05:34:10;;;;;;;7.75;5.30;;;3.40;99.90;;;;;;5011669;28;20217;-73
2023/01/30 05:36:39;;;;;;;7.65;5.30;;;3.40;99.90;;;;;;4994962;28;20192;-74
2023/01/30 05:39:07;;;;;;;6.45;4.38;;;3.30;99.90;;;;;;5009842;28;20291;-74
2023/01/30 05:41:35;;;;;;;5.68;3.65;;;3.40;99.90;;;;;;5000834;28;20353;-73
2023/01/30 05:44:04;;;;;;;6.60;4.15;;;3.40;99.90;;;;;;5009166;28;20213;-74
2023/01/30 05:46:34;;;;;;;5.80;4.05;;;3.40;99.90;;;;;;5001799;28;20201;-74
2023/01/30 05:49:03;;;;;;;4.03;3.58;;;3.40;99.90;;;;;;5019222;28;20199;-75
2023/01/30 05:51:31;;;;;;;6.25;4.18;;;3.40;99.90;;;;;;4996765;28;20272;-75
2023/01/30 05:53:59;;;;;;;4.82;3.75;;;3.30;99.90;;;;;;5000698;28;20248;-74
2023/01/30 05:56:29;;;;;;;5.30;4.00;;;3.30;99.90;;;;;;5005652;28;20208;-74
2023/01/30 05:58:57;;;;;;;5.53;3.67;;;3.40;99.90;;;;;;5000671;28;20193;-75
2023/01/30 06:01:26;;;;;;;4.03;3.58;;;3.40;99.90;;;;;;4998671;28;20217;-74
2023/01/30 06:03:57;;;;;;;5.10;4.10;;;3.40;99.90;;;;;;4994688;28;20250;-73
2023/01/30 06:06:26;;;;;;;4.40;3.35;;;3.40;99.90;;;;;;5007899;28;20193;-75
2023/01/30 06:08:55;;;;;;;4.43;3.30;;;3.40;99.90;;;;;;5007271;28;20920;-74
2023/01/30 06:11:24;;;;;;;4.88;3.60;;;3.40;99.90;;;;;;5006556;28;20197;-74
2023/01/30 06:13:52;;;;;;;5.10;3.40;;;3.40;99.90;;;;;;4997652;28;20217;-74
2023/01/30 06:16:21;;;;;;;6.82;3.47;;;3.40;99.90;;;;;;4992738;28;20182;-73
2023/01/30 06:18:49;;;;;;;5.65;3.15;;;3.40;99.90;;;;;;5007233;28;20198;-73
2023/01/30 06:21:19;;;;;;;5.10;3.50;;;3.40;99.90;;;;;;5003463;28;20259;-73
2023/01/30 06:23:47;;;;;;;5.63;3.50;;;3.40;99.90;;;;;;4998710;28;20303;-75
2023/01/30 06:26:15;;;;;;;5.30;3.08;;;3.40;99.90;;;;;;5001633;28;20624;-75
2023/01/30 06:28:44;;;;;;;3.90;2.72;;;3.40;99.90;;;;;;5001798;28;20191;-73
2023/01/30 06:31:12;;;;;;;6.53;3.92;;;3.40;99.90;;;;;;5002315;28;20227;-73
2023/01/30 06:33:42;;;;;;;4.85;3.90;;;3.40;99.90;;;;;;5023628;28;20611;-74
2023/01/30 06:36:11;;;;;;;5.15;3.25;;;3.40;99.90;;;;;;4997504;28;20320;-74
2023/01/30 06:38:40;;;;;;;4.63;2.88;;;3.40;99.90;;;;;;5015530;28;20345;-73
2023/01/30 06:41:09;;;;;;;4.38;3.30;;;3.40;99.90;;;;;;5017507;28;20226;-74
2023/01/30 06:43:37;;;;;;;4.93;3.53;;;3.40;99.90;;;;;;5014018;28;20308;-73
2023/01/30 06:46:05;;;;;;;4.78;3.30;;;3.40;99.90;;;;;;4999813;28;20586;-74
2023/01/30 06:48:34;;;;;;;3.97;3.05;;;3.40;99.90;;;;;;5005540;28;20662;-74
2023/01/30 06:51:02;;;;;;;4.28;3.28;;;3.40;99.90;;;;;;5002783;28;20278;-73
2023/01/30 06:53:30;;;;;;;4.35;3.20;;;3.40;99.90;;;;;;5005371;28;20225;-74
2023/01/30 06:56:01;;;;;;;4.40;3.05;;;3.40;99.90;;;;;;4997265;28;20577;-73
2023/01/30 06:58:30;;;;;;;6.30;3.35;;;3.40;99.90;;;;;;5020114;28;20204;-74
2023/01/30 07:00:58;;;;;;;3.95;2.97;;;3.40;99.90;;;;;;4999106;28;20241;-74
2023/01/30 07:03:27;;;;;;;2.97;2.35;;;3.40;99.90;;;;;;5003945;28;20218;-75
2023/01/30 07:05:55;;;;;;;5.28;3.22;;;3.40;99.90;;;;;;5007033;28;20252;-75
2023/01/30 07:08:23;;;;;;;3.88;2.58;;;3.40;99.90;;;;;;4991382;28;20220;-75
2023/01/30 07:10:52;;;;;;;4.53;3.03;;;3.40;99.90;;;;;;5013560;28;20226;-75
2023/01/30 07:13:21;;;;;;;3.80;2.75;;;3.40;99.90;;;;;;5007977;28;20303;-74
2023/01/30 07:15:50;;;;;;;4.05;2.42;;;3.40;99.90;;;;;;5017398;28;20567;-74
2023/01/30 07:18:18;;;;;;;3.28;2.67;;;3.40;99.90;;;;;;5020029;28;20191;-75
2023/01/30 07:20:47;;;;;;;4.10;2.83;;;3.40;99.90;;;;;;4993904;28;20221;-73
2023/01/30 07:23:16;;;;;;;3.97;2.35;;;3.40;99.90;;;;;;5000245;28;20229;-75
2023/01/30 07:25:45;;;;;;;4.25;2.90;;;3.40;99.90;;;;;;4986251;28;20292;-73
2023/01/30 07:28:13;;;;;;;4.50;2.90;;;3.40;99.90;;;;;;4996465;28;20920;-74
2023/01/30 07:30:43;;;;;;;6.45;2.10;;;3.40;99.90;;;;;;5008362;28;20209;-75
2023/01/30 07:33:12;;;;;;;3.70;2.58;;;3.40;99.90;;;;;;5008631;28;20225;-74
2023/01/30 07:35:40;;;;;;;3.30;2.20;;;3.40;99.90;;;;;;4998765;28;21157;-74
2023/01/30 07:38:08;;;;;;;2.88;2.47;;;3.40;99.90;;;;;;5002163;28;20209;-74
2023/01/30 07:40:37;;;;;;;3.35;2.58;;;3.40;99.90;;;;;;5000629;28;20225;-74
2023/01/30 07:43:07;;;;;;;3.58;2.90;;;3.40;99.90;;;;;;4994377;28;20245;-73
2023/01/30 07:45:37;;;;;;;3.70;2.63;;;3.40;99.90;;;;;;4997841;28;20230;-75
2023/01/30 07:48:08;;;;;;;3.28;2.45;;;3.40;99.90;;;;;;4997499;28;20207;-74
2023/01/30 07:50:37;;;;;;;4.72;3.20;;;3.40;99.90;;;;;;5013506;28;20287;-73
2023/01/30 07:53:06;;;;;;;2.45;2.25;;;3.40;99.90;;;;;;4999967;28;20204;-75
2023/01/30 07:55:35;;;;;;;2.55;2.00;;;3.40;99.90;;;;;;5020881;28;20260;-74
2023/01/30 07:58:04;;;;;;;5.00;2.85;;;3.50;99.90;;;;;;5022613;28;20280;-73
2023/01/30 08:00:33;;;;;;;2.58;2.33;;;3.50;99.90;;;;;;4987717;28;20381;-75
2023/01/30 08:03:01;;;;;;;2.63;2.42;;;3.40;99.90;;;;;;4997329;28;20197;-75
2023/01/30 08:05:31;;;;;;;2.25;2.03;;;3.40;99.90;;;;;;4996840;28;20705;-74
2023/01/30 08:08:00;;;;;;;4.07;2.80;;;3.50;99.90;;;;;;4996950;28;20228;-74
2023/01/30 08:10:28;;;;;;;3.00;2.13;;;3.50;99.90;;;;;;4989487;28;20279;-73
2023/01/30 08:12:57;;;;;;;3.47;2.97;;;3.40;99.90;;;;;;4999751;28;20200;-74
2023/01/30 08:15:25;;;;;;;2.50;2.30;;;3.50;99.90;;;;;;5021358;28;20221;-73
2023/01/30 08:17:55;;;;;;;3.45;2.30;;;3.50;99.90;;;;;;5015215;28;20233;-74
2023/01/30 08:20:23;;;;;;;3.53;2.55;;;3.50;99.90;;;;;;5003936;28;20297;-75
2023/01/30 08:22:53;;;;;;;4.00;3.00;;;3.50;99.90;;;;;;4993005;28;20217;-74
2023/01/30 08:25:22;;;;;;;2.80;2.55;;;3.50;99.90;;;;;;5005517;28;20269;-73
2023/01/30 08:27:50;;;;;;;3.53;2.40;;;3.50;99.90;;;;;;5007119;28;20195;-74
2023/01/30 08:30:20;;;;;;;3.10;2.33;;;3.50;99.90;;;;;;4999459;28;20705;-73
2023/01/30 08:32:49;;;;;;;4.07;2.47;;;3.50;99.90;;;;;;4999371;28;20189;-73
2023/01/30 08:35:18;;;;;;;4.22;2.85;;;3.50;99.90;;;;;;4998123;28;20294;-74
2023/01/30 08:37:46;;;;;;;3.33;2.42;;;3.50;99.90;;;;;;5002110;28;20244;-72
2023/01/30 08:40:16;;;;;;;4.28;3.13;;;3.50;99.90;;;;;;4994318;28;20853;-73
2023/01/30 08:42:45;;;;;;;2.47;2.05;;;3.50;99.90;;;;;;4989952;28;20224;-74
2023/01/30 08:45:14;;;;;;;3.05;2.40;;;3.50;99.90;;;;;;4998249;28;20218;-74
2023/01/30 08:47:43;;;;;;;5.85;2.60;;;3.50;99.90;;;;;;4999820;28;20276;-74
2023/01/30 08:50:11;;;;;;;4.00;2.55;;;3.50;99.90;;;;;;5021841;28;20210;-73
2023/01/30 08:52:40;;;;;;;4.10;2.63;;;3.50;99.90;;;;;;4983368;28;20189;-74
2023/01/30 08:55:09;;;;;;;3.13;2.42;;;3.50;99.90;;;;;;5000604;28;20239;-74
2023/01/30 08:57:39;;;;;;;4.13;3.08;;;3.50;99.90;;;;;;5005135;28;20280;-73
2023/01/30 09:00:09;;;;;;;3.40;2.42;;;3.50;99.90;;;;;;4998115;28;20217;-74
2023/01/30 09:02:37;;;;;;;2.67;2.10;;;3.50;99.90;;;;;;5006352;28;20928;-74
2023/01/30 09:05:07;;;;;;;2.47;2.10;;;3.50;99.90;;;;;;4996302;28;20297;-73
2023/01/30 09:07:35;;;;;;;3.60;2.38;;;3.60;99.90;;;;;;5016953;28;20284;-73
2023/01/30 09:10:04;;;;;;;3.15;2.50;;;3.60;99.90;;;;;;5004075;28;20229;-73
2023/01/30 09:12:33;;;;;;;4.78;2.75;;;3.60;99.90;;;;;;5011936;28;20192;-73
2023/01/30 09:15:03;;;;;;;4.40;2.20;;;3.60;99.90;;;;;;5025188;28;20276;-74
2023/01/30 09:17:32;;;;;;;4.63;2.25;;;3.60;99.90;;;;;;5000564;28;20221;-74
2023/01/30 09:20:01;;;;;;;3.55;2.88;;;3.60;99.90;;;;;;5009682;28;20245;-73
2023/01/30 09:22:29;;;;;;;3.58;2.35;;;3.60;99.90;;;;;;4994284;28;20226;-68
2023/01/30 09:24:58;;;;;;;3.38;2.20;;;3.60;99.90;;;;;;5017394;28;20558;-67
2023/01/30 09:27:27;;;;;;;2.85;2.22;;;3.60;99.90;;;;;;5022423;28;20678;-67
2023/01/30 09:29:56;;;;;;;3.30;2.90;;;3.60;99.90;;;;;;4999093;28;20702;-67
2023/01/30 09:32:26;;;;;;;3.80;2.40;;;3.60;99.90;;;;;;5018910;28;20241;-69
2023/01/30 09:34:54;;;;;;;3.20;1.90;;;3.60;99.90;;;;;;5018347;28;20251;-66
2023/01/30 09:37:23;;;;;;;2.17;2.00;;;3.60;99.90;;;;;;5001618;28;20198;-67
2023/01/30 09:39:51;;;;;;;2.80;2.50;;;3.60;99.90;;;;;;5007917;28;20222;-68
2023/01/30 09:42:53;;;;;;;3.08;1.52;;;3.70;99.90;;;;;;5000032;28;20207;-68
2023/01/30 09:45:39;;;;;;;1.95;1.75;;;3.70;99.90;;;;;;4990885;28;20764;-68
2023/01/30 09:48:22;;;;;;;3.42;2.10;;;3.70;99.90;;;;;;5021534;28;20251;-68
2023/01/30 09:51:22;;;;;;;4.55;2.63;;;3.70;99.90;;;;;;4994157;28;20218;-67
2023/01/30 09:54:00;;;;;;;9.15;3.30;;;3.70;99.90;;;;;;5001678;28;20748;-66
2023/01/30 09:56:28;;;;;;;9.27;4.30;;;3.80;99.90;;;;;;5002964;28;20202;-68
2023/01/30 09:58:58;;;;;;;7.30;3.13;;;3.90;99.90;;;;;;5002155;28;20994;-66
2023/01/30 10:01:34;;;;;;;6.05;3.15;;;3.90;99.90;;;;;;5015893;28;20272;-68
2023/01/30 10:04:14;;;;;;;6.03;3.40;;;3.90;99.90;;;;;;5017302;28;20205;-67
2023/01/30 10:06:52;;;;;;;2.78;2.30;;;3.90;99.90;;;;;;5006663;28;20194;-69
2023/01/30 10:09:32;;;;;;;2.53;2.33;;;3.90;99.90;;;;;;5017931;28;20224;-66
2023/01/30 10:12:14;;;;;;;5.20;2.95;;;3.90;99.90;;;;;;5023516;28;20190;-66
2023/01/30 10:14:57;;;;;;;5.60;2.80;;;3.90;99.90;;;;;;4997011;28;20232;-66
2023/01/30 10:17:47;;;;;;;4.07;2.70;;;3.90;99.90;;;;;;4997597;28;20197;-67
2023/01/30 10:20:36;;;;;;;3.47;2.40;;;3.90;99.90;;;;;;4995102;28;20224;-68
2023/01/30 10:23:20;;;;;;;7.40;2.88;;;3.90;99.90;;;;;;5014745;28;20218;-68
2023/01/30 10:25:53;;;;;;;2.78;2.35;;;3.80;99.90;;;;;;5002885;28;20280;-67
2023/01/30 10:28:26;;;;;;;4.95;2.22;;;3.80;99.90;;;;;;5001223;28;20198;-68
2023/01/30 10:31:00;;;;;;;10.02;2.30;;;3.80;99.90;;;;;;5007236;28;20217;-68
2023/01/30 10:33:33;;;;;;;4.30;3.15;;;3.80;99.90;;;;;;5003326;28;20221;-69
2023/01/30 10:36:08;;;;;;;3.03;2.13;;;3.80;99.90;;;;;;4992248;28;20306;-66
2023/01/30 10:38:44;;;;;;;3.15;2.00;;;3.80;99.90;;;;;;5000139;28;20530;-66
2023/01/30 10:41:21;;;;;;;4.68;2.85;;;3.80;99.90;;;;;;5001864;28;20228;-67
2023/01/30 10:43:58;;;;;;;3.25;2.33;;;3.90;99.90;;;;;;4994809;28;20308;-66
2023/01/30 10:46:54;;;;;;;3.88;2.55;;;3.90;99.90;;;;;;5021937;28;20220;-67
2023/01/30 10:49:31;;;;;;;4.10;2.22;;;3.90;99.90;;;;;;5010642;28;20188;-66
2023/01/30 10:52:07;;;;;;;3.97;1.98;;;3.90;99.90;;;;;;5005215;28;20196;-67
2023/01/30 10:54:40;;;;;;;3.05;2.22;;;3.90;99.90;;;;;;5006913;28;20632;-67
2023/01/30 10:57:19;;;;;;;2.20;2.00;;;3.90;99.90;;;;;;4995533;28;20198;-68
2023/01/30 10:59:58;;;;;;;4.68;2.03;;;3.90;99.90;;;;;;5000977;28;20264;-68
2023/01/30 11:02:35;;;;;;;5.05;2.30;;;3.80;99.90;;;;;;5001407;28;20219;-69
2023/01/30 11:05:14;;;;;;;2.63;2.13;;;3.90;99.90;;;;;;4994488;28;20561;-67
2023/01/30 11:07:46;;;;;;;3.00;1.70;;;3.90;99.90;;;;;;4997553;28;20186;-68
2023/01/30 11:10:18;;;;;;;5.18;2.75;;;3.90;99.90;;;;;;4999654;28;20240;-69
2023/01/30 11:12:47;;;;;;;3.75;2.10;;;3.80;99.90;;;;;;5004303;28;20217;-69
2023/01/30 11:15:15;;;;;;;3.15;1.80;;;3.90;99.90;;;;;;4999392;28;20303;-68
2023/01/30 11:17:45;;;;;;;6.15;1.70;;;3.80;99.90;;;;;;5011793;28;20190;-67
2023/01/30 11:20:16;;;;;;;2.83;1.98;;;3.90;99.90;;;;;;5016929;28;20267;-69
2023/01/30 11:22:53;;;;;;;4.68;2.55;;;3.80;99.90;;;;;;5000568;28;20221;-68
2023/01/30 11:25:23;;;;;;;5.45;2.70;;;3.90;99.90;;;;;;4993681;28;20673;-67
2023/01/30 11:27:55;;;;;;;2.70;1.90;;;3.80;99.90;;;;;;5018577;28;20194;-68
2023/01/30 11:30:28;;;;;;;2.88;1.60;;;3.80;99.90;;;;;;5021510;28;20245;-67
2023/01/30 11:33:10;;;;;;;3.50;1.95;;;3.90;99.90;;;;;;5012693;28;20559;-66
2023/01/30 11:35:44;;;;;;;3.38;1.70;;;3.80;99.90;;;;;;5020315;28;20251;-67
2023/01/30 11:38:23;;;;;;;3.30;1.70;;;3.90;99.90;;;;;;5006148;28;20213;-67
2023/01/30 11:41:02;;;;;;;4.60;1.92;;;3.80;99.90;;;;;;4987976;28;20635;-68
2023/01/30 11:43:32;;;;;;;4.35;2.10;;;3.90;99.90;;;;;;4989708;28;20243;-68
2023/01/30 11:46:01;;;;;;;2.85;1.50;;;3.90;99.90;;;;;;4995518;28;20309;-67
2023/01/30 11:48:32;;;;;;;3.63;1.58;;;3.90;99.90;;;;;;4992875;28;20202;-69
2023/01/30 11:51:22;;;;;;;3.35;1.77;;;3.90;99.90;;;;;;5005731;28;20221;-69
2023/01/30 11:53:57;;;;;;;4.65;2.10;;;3.90;99.90;;;;;;4989423;28;20295;-68
2023/01/30 11:56:32;;;;;;;4.40;1.73;;;3.90;99.90;;;;;;4997168;28;20204;-67
2023/01/30 11:59:03;;;;;;;3.97;2.08;;;3.90;99.90;;;;;;4995931;28;20200;-68
2023/01/30 12:01:34;;;;;;;6.00;2.00;;;3.90;99.90;;;;;;5000790;28;20288;-67
2023/01/30 12:04:08;;;;;;;11.30;2.45;;;3.90;99.90;;;;;;5014607;28;20256;-66
2023/01/30 12:06:38;;;;;;;4.45;1.80;;;3.90;99.90;;;;;;4999087;28;20193;-68
2023/01/30 12:09:31;;;;;;;2.92;2.50;;;3.90;99.90;;;;;;4999197;28;20198;-73
2023/01/30 12:12:00;;;;;;;3.75;1.73;;;3.90;99.90;;;;;;4989152;28;20252;-75
2023/01/30 12:14:38;;;;;;;2.83;1.85;;;3.90;99.90;;;;;;4988323;28;20278;-73
2023/01/30 12:17:17;;;;;;;4.93;2.75;;;3.90;99.90;;;;;;5010159;28;20225;-67
2023/01/30 12:19:57;;;;;;;2.47;1.60;;;3.90;99.90;;;;;;4998422;28;20238;-68
2023/01/30 12:22:35;;;;;;;4.70;1.67;;;3.90;99.90;;;;;;4981686;28;20651;-67
2023/01/30 12:25:13;;;;;;;3.67;1.70;;;3.90;99.90;;;;;;4999607;28;20224;-68
2023/01/30 12:27:55;;;;;;;5.68;2.10;;;3.90;99.90;;;;;;4999274;28;20204;-69
2023/01/30 12:30:38;;;;;;;2.22;2.08;;;3.90;99.90;;;;;;5001535;28;20246;-66
2023/01/30 12:33:14;;;;;;;2.60;1.38;;;3.90;99.90;;;;;;5001339;28;20189;-67
2023/01/30 12:36:03;;;;;;;3.13;1.80;;;3.90;99.90;;;;;;5020927;28;20220;-70
2023/01/30 12:38:43;;;;;;;2.33;1.90;;;3.90;99.90;;;;;;4996812;28;20606;-69
2023/01/30 12:41:34;;;;;;;2.05;1.85;;;3.90;99.90;;;;;;4988353;28;20226;-67
2023/01/30 12:44:25;;;;;;;4.82;1.70;;;3.90;99.90;;;;;;5014739;28;20697;-67
2023/01/30 12:47:17;;;;;;;5.60;1.90;;;3.90;99.90;;;;;;4994864;28;20204;-66
2023/01/30 12:50:02;;;;;;;4.60;2.05;;;3.90;99.90;;;;;;5014204;28;20315;-66
2023/01/30 12:52:50;;;;;;;3.40;1.73;;;3.90;99.90;;;;;;4994952;28;20198;-70
2023/01/30 12:55:32;;;;;;;2.53;1.65;;;3.90;99.90;;;;;;5002652;28;20237;-67
2023/01/30 12:58:07;;;;;;;2.47;1.65;;;3.90;99.90;;;;;;5001018;28;20225;-68
2023/01/30 13:00:51;;;;;;;2.50;1.45;;;3.90;99.90;;;;;;4993707;28;20222;-69
2023/01/30 13:03:26;;;;;;;4.65;2.30;;;3.90;99.90;;;;;;4996875;28;20278;-67
2023/01/30 13:06:06;;;;;;;2.28;1.90;;;3.90;99.90;;;;;;5010781;28;20216;-67
2023/01/30 13:08:47;;;;;;;4.95;1.42;;;3.90;99.90;;;;;;4992838;28;20303;-67
2023/01/30 13:11:27;;;;;;;1.40;1.23;;;3.90;99.90;;;;;;4988174;28;20600;-67
2023/01/30 13:14:04;;;;;;;3.92;1.80;;;3.90;99.90;;;;;;4998949;28;20310;-67
2023/01/30 13:16:40;;;;;;;2.20;1.40;;;3.90;99.90;;;;;;4998148;28;20206;-66
2023/01/30 13:19:18;;;;;;;2.30;1.52;;;3.90;99.90;;;;;;4994580;28;20220;-66
2023/01/30 13:21:56;;;;;;;5.25;1.50;;;3.90;99.90;;;;;;4995945;28;20208;-68
2023/01/30 13:24:32;;;;;;;5.00;1.92;;;3.90;99.90;;;;;;5015671;28;20201;-68
2023/01/30 13:27:06;;;;;;;4.45;1.70;;;4.00;99.90;;;;;;4993737;28;20755;-67
2023/01/30 13:29:40;;;;;;;2.15;1.60;;;4.00;99.90;;;;;;4998137;28;20721;-68
2023/01/30 13:32:16;;;;;;;3.70;1.38;;;4.00;99.90;;;;;;5003396;28;20236;-67
2023/01/30 13:34:47;;;;;;;2.92;1.48;;;4.00;99.90;;;;;;5002923;28;20292;-69